Terminal Aerodrome Forecast
Issued by NWS Blacksburg, VA

Current Version | Previous Version | Text Only | Print | Product List | Glossary Off
Versions: 1 2 3 4 5 6 7 8 9 10 11 12 13 14 15 16 17 18

000
FTUS41 KRNK 161720
TAFBLF
TAF
KBLF 161720Z 1618/1718 30011G20KT 3SM SHRA BR OVC008
     FM161900 31012G20KT 5SM -SHRA OVC008
     FM162300 32010KT P6SM -RA OVC008
      TEMPO 1623/1624 2SM -SHRA OVC003
     FM170000 32009KT P6SM VCSH OVC008
     FM170300 33006KT P6SM OVC030
     FM171300 15007KT P6SM VCSH OVC015=

USA.gov is the U.S. government's official web portal to all federal, state and local government web resources and services.